createdAt,value
2022-10-08T00:00:55.305Z,10.24
2022-10-08T00:03:59.627Z,10.19
2022-10-08T00:07:02.722Z,10.20
2022-10-08T00:10:07.624Z,10.18
2022-10-08T00:13:10.074Z,10.17
2022-10-08T00:16:14.602Z,10.14
2022-10-08T00:19:17.257Z,10.09
2022-10-08T00:22:20.385Z,10.09
2022-10-08T00:25:22.901Z,10.07
2022-10-08T00:28:25.853Z,10.01
2022-10-08T00:31:41.021Z,10.04
2022-10-08T00:34:44.156Z,10.01
2022-10-08T00:37:46.907Z,10.00
2022-10-08T00:40:50.845Z,9.98
2022-10-08T00:43:57.730Z,9.92
2022-10-08T00:47:05.821Z,9.94
2022-10-08T00:50:10.920Z,9.95
2022-10-08T00:53:14.332Z,9.97
2022-10-08T00:56:16.981Z,9.96
2022-10-08T00:59:21.381Z,9.87
2022-10-08T01:02:23.869Z,9.86
2022-10-08T01:05:35.213Z,9.79
2022-10-08T01:08:49.811Z,9.74
2022-10-08T01:12:24.201Z,9.78
2022-10-08T01:15:42.295Z,9.82
2022-10-08T01:19:09.907Z,9.78
2022-10-08T01:22:30.633Z,9.78
2022-10-08T01:25:45.705Z,9.74
2022-10-08T01:29:05.571Z,9.68
2022-10-08T01:32:17.983Z,9.66
2022-10-08T01:35:26.293Z,9.64
2022-10-08T01:38:33.534Z,9.66
2022-10-08T01:41:36.329Z,9.69
2022-10-08T01:44:47.993Z,9.62
2022-10-08T01:47:51.778Z,9.63
2022-10-08T01:51:14.931Z,9.63
2022-10-08T01:54:18.684Z,9.62
2022-10-08T01:57:24.824Z,9.54
2022-10-08T02:00:27.946Z,9.51
2022-10-08T02:03:31.128Z,9.50
2022-10-08T02:06:37.230Z,9.48
2022-10-08T02:09:44.450Z,9.47
2022-10-08T02:12:47.429Z,9.47
2022-10-08T02:16:11.302Z,9.50
2022-10-08T02:19:26.519Z,9.53
2022-10-08T02:22:44.986Z,9.57
2022-10-08T02:26:00.354Z,9.55
2022-10-08T02:29:16.286Z,9.54
2022-10-08T02:32:24.165Z,9.55
2022-10-08T02:35:34.942Z,9.55
2022-10-08T02:38:44.847Z,9.51
2022-10-08T02:41:54.919Z,9.45
2022-10-08T02:45:07.577Z,9.44
2022-10-08T02:48:16.421Z,9.41
2022-10-08T02:51:21.228Z,9.40
2022-10-08T02:54:24.446Z,9.40
2022-10-08T02:57:41.148Z,9.37
2022-10-08T03:00:57.251Z,9.34
2022-10-08T03:04:07.956Z,9.31
2022-10-08T03:07:15.280Z,9.35
2022-10-08T03:10:19.961Z,9.37
2022-10-08T03:13:24.532Z,9.36
2022-10-08T03:16:37.931Z,9.33
2022-10-08T03:19:42.584Z,9.25
2022-10-08T03:22:46.124Z,9.26
2022-10-08T03:25:49.842Z,9.24
2022-10-08T03:28:53.281Z,9.18
2022-10-08T03:31:56.077Z,9.15
2022-10-08T03:34:58.884Z,9.10
2022-10-08T03:38:02.575Z,9.06
2022-10-08T03:41:05.260Z,9.06
2022-10-08T03:44:09.744Z,9.06
2022-10-08T03:47:12.132Z,9.08
2022-10-08T03:50:15.286Z,9.12
2022-10-08T03:53:19.087Z,9.14
2022-10-08T03:56:25.971Z,9.15
2022-10-08T03:59:28.753Z,9.18
2022-10-08T04:02:32.686Z,9.20
2022-10-08T04:05:36.191Z,9.25
2022-10-08T04:08:39.907Z,9.30
2022-10-08T04:11:43.249Z,9.26
2022-10-08T04:14:46.744Z,9.30
2022-10-08T04:17:50.831Z,9.30
2022-10-08T04:21:00.571Z,9.31
2022-10-08T04:24:03.921Z,9.34
2022-10-08T04:27:06.794Z,9.27
2022-10-08T04:30:10.327Z,9.30
2022-10-08T04:33:13.928Z,9.18
2022-10-08T04:36:22.824Z,9.20
2022-10-08T04:39:25.758Z,9.18
2022-10-08T04:42:28.703Z,9.17
2022-10-08T04:45:31.460Z,9.19
2022-10-08T04:48:36.921Z,9.17
2022-10-08T04:51:46.320Z,9.13
2022-10-08T04:54:50.642Z,9.18
2022-10-08T04:57:58.421Z,9.18
2022-10-08T05:01:11.461Z,9.15
2022-10-08T05:04:15.536Z,9.15
2022-10-08T05:07:20.056Z,9.13
2022-10-08T05:10:25.049Z,9.11
2022-10-08T05:13:28.270Z,9.14
2022-10-08T05:16:33.505Z,9.20
2022-10-08T05:19:38.438Z,9.28
2022-10-08T05:22:42.459Z,9.36
2022-10-08T05:25:52.339Z,9.43
2022-10-08T05:29:05.478Z,9.56
2022-10-08T05:32:08.928Z,9.67
2022-10-08T05:35:11.617Z,9.78
2022-10-08T05:38:15.212Z,9.87
2022-10-08T05:41:31.360Z,9.95
2022-10-08T05:44:37.962Z,10.09
2022-10-08T05:47:49.413Z,10.24
2022-10-08T05:50:56.367Z,10.55
2022-10-08T05:54:04.205Z,11.01
2022-10-08T05:57:19.468Z,11.72
2022-10-08T06:00:25.620Z,12.44
2022-10-08T06:03:29.448Z,13.44
2022-10-08T06:06:32.807Z,13.48
2022-10-08T06:09:39.427Z,13.90
2022-10-08T06:12:43.009Z,14.27
2022-10-08T06:15:56.904Z,14.93
2022-10-08T06:19:08.192Z,14.76
2022-10-08T06:22:13.425Z,14.89
2022-10-08T06:25:16.900Z,15.35
2022-10-08T06:28:24.120Z,15.12
2022-10-08T06:31:35.042Z,15.08
2022-10-08T06:34:48.603Z,15.22
2022-10-08T06:37:54.824Z,15.58
2022-10-08T06:41:00.762Z,16.86
2022-10-08T06:44:05.961Z,17.05
2022-10-08T06:47:17.691Z,17.27
2022-10-08T06:50:21.905Z,17.10
2022-10-08T06:53:25.242Z,17.36
2022-10-08T06:56:30.447Z,17.47
2022-10-08T06:59:34.688Z,17.98
2022-10-08T07:02:44.976Z,18.01
2022-10-08T07:05:48.636Z,17.79
2022-10-08T07:08:56.467Z,17.79
2022-10-08T07:12:13.646Z,17.79
2022-10-08T07:15:20.483Z,17.22
2022-10-08T07:18:23.938Z,17.91
2022-10-08T07:21:30.455Z,17.51
2022-10-08T07:24:37.410Z,17.44
2022-10-08T07:27:44.731Z,18.57
2022-10-08T07:31:07.633Z,17.82
2022-10-08T07:34:12.296Z,17.62
2022-10-08T07:37:21.654Z,18.11
2022-10-08T07:40:26.740Z,18.02
2022-10-08T07:43:31.974Z,17.85
2022-10-08T07:46:37.223Z,17.92
2022-10-08T07:49:40.493Z,18.92
2022-10-08T07:52:47.910Z,18.37
2022-10-08T07:55:58.908Z,17.74
2022-10-08T07:59:04.662Z,17.77
2022-10-08T08:02:09.690Z,17.70
2022-10-08T08:05:12.904Z,17.79
2022-10-08T08:08:24.919Z,17.79
2022-10-08T08:11:30.387Z,17.33
2022-10-08T08:14:37.091Z,17.50
2022-10-08T08:17:46.174Z,17.63
2022-10-08T08:21:08.398Z,17.76
2022-10-08T08:24:15.537Z,17.79
2022-10-08T08:27:19.056Z,17.69
2022-10-08T08:30:23.423Z,18.24
2022-10-08T08:33:28.044Z,18.12
2022-10-08T08:36:48.469Z,18.33
2022-10-08T08:39:57.682Z,18.65
2022-10-08T08:43:01.430Z,18.41
2022-10-08T08:46:04.845Z,18.16
2022-10-08T08:49:19.888Z,18.69
2022-10-08T08:52:27.803Z,18.47
2022-10-08T08:55:45.406Z,18.98
2022-10-08T08:59:21.403Z,18.88
2022-10-08T09:02:34.722Z,18.83
2022-10-08T09:05:46.534Z,19.04
2022-10-08T09:09:07.560Z,18.99
2022-10-08T09:12:37.612Z,19.14
2022-10-08T09:15:43.047Z,19.42
2022-10-08T09:18:57.319Z,19.54
2022-10-08T09:22:16.786Z,20.32
2022-10-08T09:25:32.894Z,19.43
2022-10-08T09:28:40.627Z,20.12
2022-10-08T09:31:48.103Z,20.94
2022-10-08T09:34:55.867Z,20.97
2022-10-08T09:38:05.655Z,20.38
2022-10-08T09:41:19.853Z,20.05
2022-10-08T09:44:40.978Z,20.14
2022-10-08T09:48:18.442Z,20.13
2022-10-08T09:51:21.693Z,19.89
2022-10-08T09:54:29.962Z,20.31
2022-10-08T09:58:03.025Z,20.64
2022-10-08T10:01:18.459Z,21.39
2022-10-08T10:04:37.471Z,21.69
2022-10-08T10:07:47.195Z,21.36
2022-10-08T10:10:50.823Z,20.78
2022-10-08T10:13:56.561Z,20.11
2022-10-08T10:17:14.173Z,20.52
2022-10-08T10:20:27.412Z,20.40
2022-10-08T10:23:44.403Z,20.74
2022-10-08T10:26:54.642Z,20.54
2022-10-08T10:30:05.728Z,20.64
2022-10-08T10:33:25.435Z,20.39
2022-10-08T10:36:39.156Z,19.94
2022-10-08T10:39:44.139Z,19.93
2022-10-08T10:43:09.435Z,20.14
2022-10-08T10:46:19.530Z,20.64
2022-10-08T10:49:31.531Z,20.49
2022-10-08T10:52:45.315Z,20.51
2022-10-08T10:56:10.840Z,21.00
2022-10-08T10:59:45.311Z,21.08
2022-10-08T11:03:00.428Z,21.24
2022-10-08T11:06:23.423Z,20.56
2022-10-08T11:09:53.417Z,20.53
2022-10-08T11:13:11.312Z,20.31
2022-10-08T11:16:56.410Z,20.52
2022-10-08T11:20:24.703Z,20.65
2022-10-08T11:24:04.428Z,20.69
2022-10-08T11:27:16.503Z,20.84
2022-10-08T11:30:32.738Z,20.85
2022-10-08T11:33:43.508Z,20.66
2022-10-08T11:37:04.212Z,20.50
2022-10-08T11:40:33.853Z,19.92
2022-10-08T11:43:47.576Z,20.06
2022-10-08T11:47:41.571Z,20.03
2022-10-08T11:50:49.481Z,20.10
2022-10-08T11:54:13.472Z,19.92
2022-10-08T11:57:25.590Z,19.84
2022-10-08T12:00:47.457Z,19.88
2022-10-08T12:04:14.347Z,19.85
2022-10-08T12:07:33.449Z,19.55
2022-10-08T12:10:40.400Z,19.59
2022-10-08T12:14:16.378Z,19.74
2022-10-08T12:17:25.434Z,19.66
2022-10-08T12:20:38.372Z,19.56
2022-10-08T12:23:41.763Z,19.51
2022-10-08T12:27:24.674Z,19.62
2022-10-08T12:30:51.127Z,19.73
2022-10-08T12:34:12.010Z,19.86
2022-10-08T12:37:33.862Z,19.92
2022-10-08T12:40:45.758Z,19.75
2022-10-08T12:43:52.040Z,19.55
2022-10-08T12:47:07.537Z,19.59
2022-10-08T12:50:44.397Z,19.67
2022-10-08T12:53:54.459Z,19.71
2022-10-08T12:57:16.889Z,19.85
2022-10-08T13:00:26.544Z,19.84
2022-10-08T13:03:34.442Z,19.80
2022-10-08T13:06:42.613Z,19.87
2022-10-08T13:09:47.611Z,19.90
2022-10-08T13:13:38.130Z,19.78
2022-10-08T13:16:50.363Z,19.71
2022-10-08T13:20:07.166Z,19.70
2022-10-08T13:23:39.672Z,19.68
2022-10-08T13:26:53.545Z,19.67
2022-10-08T13:30:28.984Z,19.69
2022-10-08T13:33:39.128Z,19.80
2022-10-08T13:37:01.789Z,19.84
2022-10-08T13:40:10.841Z,19.78
2022-10-08T13:43:15.416Z,19.69
2022-10-08T13:46:21.414Z,19.73
2022-10-08T13:49:30.797Z,19.68
2022-10-08T13:52:42.693Z,19.67
2022-10-08T13:55:48.328Z,19.63
2022-10-08T13:58:56.063Z,19.61
2022-10-08T14:02:02.451Z,19.57
2022-10-08T14:05:15.452Z,19.60
2022-10-08T14:08:32.090Z,19.58
2022-10-08T14:11:43.561Z,19.52
2022-10-08T14:14:53.752Z,19.55
2022-10-08T14:17:58.680Z,19.50
2022-10-08T14:21:02.094Z,19.49
2022-10-08T14:24:06.815Z,19.51
2022-10-08T14:27:10.639Z,19.47
2022-10-08T14:30:21.804Z,19.39
2022-10-08T14:33:34.455Z,19.31
2022-10-08T14:36:43.824Z,19.24
2022-10-08T14:39:47.093Z,19.21
2022-10-08T14:42:57.592Z,19.11
2022-10-08T14:46:04.779Z,19.12
2022-10-08T14:49:16.414Z,19.11
2022-10-08T14:52:21.163Z,19.00
2022-10-08T14:55:37.944Z,18.95
2022-10-08T14:59:06.753Z,18.90
2022-10-08T15:02:17.382Z,18.83
2022-10-08T15:05:20.994Z,18.76
2022-10-08T15:08:26.429Z,18.68
2022-10-08T15:11:34.594Z,18.66
2022-10-08T15:14:39.908Z,18.68
2022-10-08T15:17:47.590Z,18.66
2022-10-08T15:20:56.258Z,18.54
2022-10-08T15:24:07.696Z,18.43
2022-10-08T15:27:17.266Z,18.29
2022-10-08T15:30:33.442Z,18.15
2022-10-08T15:33:47.334Z,18.00
2022-10-08T15:36:50.308Z,17.91
2022-10-08T15:39:58.542Z,17.83
2022-10-08T15:43:04.945Z,17.76
2022-10-08T15:46:15.043Z,17.58
2022-10-08T15:49:20.720Z,17.43
2022-10-08T15:52:30.900Z,17.30
2022-10-08T15:55:43.417Z,17.16
2022-10-08T15:58:53.808Z,17.04
2022-10-08T16:02:04.748Z,16.95
2022-10-08T16:05:10.446Z,16.77
2022-10-08T16:08:17.831Z,16.59
2022-10-08T16:11:36.415Z,16.45
2022-10-08T16:14:43.184Z,16.36
2022-10-08T16:17:47.858Z,16.21
2022-10-08T16:20:57.658Z,16.13
2022-10-08T16:24:02.598Z,16.01
2022-10-08T16:27:06.725Z,15.87
2022-10-08T16:30:21.706Z,15.74
2022-10-08T16:33:46.367Z,15.62
2022-10-08T16:37:03.470Z,15.57
2022-10-08T16:40:17.079Z,15.55
2022-10-08T16:43:29.336Z,15.44
2022-10-08T16:46:36.647Z,15.37
2022-10-08T16:49:58.237Z,15.31
2022-10-08T16:53:11.496Z,15.17
2022-10-08T16:56:17.568Z,15.05
2022-10-08T16:59:37.719Z,14.98
2022-10-08T17:02:41.665Z,14.93
2022-10-08T17:05:47.888Z,14.86
2022-10-08T17:08:52.667Z,14.82
2022-10-08T17:12:16.518Z,14.78
2022-10-08T17:15:34.453Z,14.77
2022-10-08T17:18:46.779Z,14.76
2022-10-08T17:21:58.402Z,14.75
2022-10-08T17:25:01.247Z,14.66
2022-10-08T17:28:11.573Z,14.59
2022-10-08T17:31:18.859Z,14.54
2022-10-08T17:34:22.188Z,14.50
2022-10-08T17:37:28.909Z,14.43
2022-10-08T17:40:43.638Z,14.35
2022-10-08T17:44:02.350Z,14.24
2022-10-08T17:47:11.525Z,14.18
2022-10-08T17:50:17.557Z,14.09
2022-10-08T17:53:28.461Z,14.10
2022-10-08T17:56:34.710Z,14.05
2022-10-08T17:59:43.866Z,14.00
2022-10-08T18:02:52.017Z,13.96
2022-10-08T18:06:04.507Z,13.91
2022-10-08T18:09:21.202Z,13.88
2022-10-08T18:12:37.186Z,13.83
2022-10-08T18:15:47.245Z,13.78
2022-10-08T18:18:56.496Z,13.76
2022-10-08T18:22:02.084Z,13.67
2022-10-08T18:25:21.494Z,13.56
2022-10-08T18:28:31.984Z,13.51
2022-10-08T18:31:50.369Z,13.32
2022-10-08T18:35:00.433Z,13.24
2022-10-08T18:38:09.463Z,13.24
2022-10-08T18:41:23.984Z,13.22
2022-10-08T18:44:30.786Z,13.16
2022-10-08T18:47:34.314Z,13.13
2022-10-08T18:50:49.149Z,13.11
2022-10-08T18:53:59.492Z,12.94
2022-10-08T18:57:02.949Z,12.80
2022-10-08T19:00:08.988Z,12.71
2022-10-08T19:03:34.454Z,12.64
2022-10-08T19:06:42.595Z,12.63
2022-10-08T19:09:48.187Z,12.66
2022-10-08T19:13:00.001Z,12.63
2022-10-08T19:16:14.529Z,12.60
2022-10-08T19:19:25.427Z,12.55
2022-10-08T19:22:36.406Z,12.37
2022-10-08T19:25:44.086Z,12.42
2022-10-08T19:28:55.506Z,12.45
2022-10-08T19:32:02.423Z,12.43
2022-10-08T19:35:07.456Z,12.48
2022-10-08T19:38:34.507Z,12.37
2022-10-08T19:41:48.117Z,12.18
2022-10-08T19:44:59.879Z,12.15
2022-10-08T19:48:17.362Z,12.18
2022-10-08T19:51:23.729Z,12.14
2022-10-08T19:54:33.207Z,12.10
2022-10-08T19:57:40.482Z,12.07
2022-10-08T20:00:50.500Z,12.01
2022-10-08T20:03:57.722Z,11.89
2022-10-08T20:07:11.405Z,11.91
2022-10-08T20:10:28.470Z,11.96
2022-10-08T20:13:40.771Z,11.99
2022-10-08T20:16:44.583Z,12.03
2022-10-08T20:19:47.556Z,11.99
2022-10-08T20:22:54.226Z,11.97
2022-10-08T20:26:27.444Z,11.98
2022-10-08T20:29:34.157Z,11.98
2022-10-08T20:32:40.469Z,11.94
2022-10-08T20:35:44.504Z,11.90
2022-10-08T20:39:00.692Z,11.90
2022-10-08T20:42:10.715Z,11.87
2022-10-08T20:45:19.493Z,11.93
2022-10-08T20:48:24.461Z,11.87
2022-10-08T20:51:29.600Z,11.92
2022-10-08T20:54:35.906Z,11.79
2022-10-08T20:57:40.119Z,11.83
2022-10-08T21:00:43.265Z,11.85
2022-10-08T21:03:47.884Z,11.72
2022-10-08T21:06:53.461Z,11.66
2022-10-08T21:09:56.681Z,11.65
2022-10-08T21:12:59.943Z,11.69
2022-10-08T21:16:06.083Z,11.77
2022-10-08T21:19:16.623Z,11.83
2022-10-08T21:22:19.510Z,11.88
2022-10-08T21:25:23.493Z,11.91
2022-10-08T21:28:29.476Z,11.91
2022-10-08T21:31:34.921Z,12.02
2022-10-08T21:34:39.366Z,11.87
2022-10-08T21:37:42.275Z,11.78
2022-10-08T21:40:57.013Z,11.65
2022-10-08T21:44:02.669Z,11.73
2022-10-08T21:47:05.782Z,11.80
2022-10-08T21:50:10.652Z,11.80
2022-10-08T21:53:15.003Z,11.78
2022-10-08T21:56:22.839Z,11.81
2022-10-08T21:59:27.434Z,11.85
2022-10-08T22:02:32.354Z,11.87
2022-10-08T22:05:35.427Z,11.87
2022-10-08T22:08:38.550Z,11.94
2022-10-08T22:11:41.534Z,11.97
2022-10-08T22:14:44.160Z,11.96
2022-10-08T22:17:48.538Z,11.91
2022-10-08T22:20:51.637Z,11.85
2022-10-08T22:23:56.714Z,11.82
2022-10-08T22:27:03.648Z,11.86
2022-10-08T22:30:08.494Z,11.83
2022-10-08T22:33:10.960Z,11.79
2022-10-08T22:36:19.449Z,11.78
2022-10-08T22:39:22.337Z,11.73
2022-10-08T22:42:25.238Z,11.69
2022-10-08T22:45:28.237Z,11.64
2022-10-08T22:48:32.783Z,11.58
2022-10-08T22:51:35.922Z,11.56
2022-10-08T22:54:46.485Z,11.47
2022-10-08T22:57:49.992Z,11.37
2022-10-08T23:01:08.399Z,11.30
2022-10-08T23:04:17.816Z,11.28
2022-10-08T23:07:22.435Z,11.17
2022-10-08T23:10:26.165Z,11.12
2022-10-08T23:13:29.942Z,11.07
2022-10-08T23:16:33.848Z,11.09
2022-10-08T23:19:37.605Z,11.10
2022-10-08T23:22:40.227Z,10.95
2022-10-08T23:25:53.723Z,10.87
2022-10-08T23:28:59.315Z,10.86
2022-10-08T23:32:02.931Z,10.85
2022-10-08T23:35:05.873Z,10.86
2022-10-08T23:38:09.715Z,10.89
2022-10-08T23:41:13.133Z,10.89
2022-10-08T23:44:16.412Z,10.88
2022-10-08T23:47:19.771Z,10.78
2022-10-08T23:50:22.964Z,10.65
2022-10-08T23:53:31.914Z,10.62
2022-10-08T23:56:35.139Z,10.56
2022-10-08T23:59:37.983Z,10.54
